Home > Products > Valid Products > MTR

000
SAUS44 KSHV 251457
MTRAQV
METAR KAQV 251456Z AUTO 25003KT 10SM CLR 22/13 A3017 RMK AO2 SLP214
T02170128 52008





000
SAUS44 KSHV 251456
MTRBKB
METAR KBKB 251454Z AUTO 00000KT 10SM CLR 22/14 A3016 RMK AO2 SLP240
T02170139 51006





000
SAUS44 KSHV 251412
MTRBKB
SPECI KBKB 251411Z AUTO 00000KT 3SM HZ CLR 16/13 A3016 RMK AO2
T01610128





000
SAUS44 KSHV 251357
MTRAQV
METAR KAQV 251356Z AUTO 00000KT 7SM CLR 15/14 A3016 RMK AO2 SLP213
T01500139





000
SAUS44 KSHV 251355
MTRBKB
METAR KBKB 251354Z AUTO 00000KT 2SM HZ CLR 14/12 A3016 RMK AO2
SLP240 T01440117





000
SAUS44 KSHV 251354
MTRBKB
SPECI KBKB 251352Z AUTO 00000KT 2SM HZ CLR 14/12 A3016 RMK AO2





000
SAUS44 KSHV 251334
MTRAQV
SPECI KAQV 251333Z AUTO 00000KT 3SM BR CLR 13/12 A3016 RMK AO2
T01280117





000
SAUS44 KSHV 251323
MTRAQV
SPECI KAQV 251322Z AUTO 00000KT 1 3/4SM BR CLR 12/11 A3015 RMK AO2
T01170106





000
SAUS44 KSHV 251257
MTRAQV
METAR KAQV 251256Z AUTO 00000KT 8SM CLR 09/08 A3015 RMK AO2 SLP209
T00940083





000
SAUS44 KSHV 251255
MTRBKB
METAR KBKB 251254Z AUTO 00000KT 1 1/2SM BR CLR 09/07 A3014 RMK AO2
SLP236 T00940072





000
SAUS44 KSHV 251252
MTRAQV
SPECI KAQV 251251Z AUTO 00000KT 2 1/2SM BR CLR 09/08 A3014 RMK AO2





000
SAUS44 KSHV 251248
MTRAQV
SPECI KAQV 251247Z AUTO 00000KT 3/4SM BR CLR 09/08 A3014 RMK AO2
T00940083





000
SAUS44 KSHV 251230
MTRBKB
SPECI KBKB 251228Z AUTO 00000KT 1 1/2SM HZ CLR 09/07 A3014 RMK AO2
T00940067





000
SAUS44 KSHV 251227
MTRAQV
SPECI KAQV 251226Z AUTO 00000KT 1 3/4SM BR CLR 09/08 A3014 RMK AO2
VIS 1V5 T00940078





000
SAUS44 KSHV 251158
MTRAQV
METAR KAQV 251156Z AUTO 00000KT 4SM BR CLR 09/08 A3014 RMK AO2
SLP207 T00890083 10106 20089 53008





000
SAUS44 KSHV 251158
MTRAQV
METAR KAQV 251156Z AUTO 00000KT 4SM BR CLR 09/08 A3014 RMK AO2
SLP207 T00890083 10106 20089 53008





000
SAUS44 KSHV 251155
MTRBKB
METAR KBKB 251154Z AUTO 00000KT 2 1/2SM BR CLR 09/07 A3014 RMK AO2
SLP234 T00890067 10111 20089 51008





000
SAUS44 KSHV 251155
MTRBKB
METAR KBKB 251154Z AUTO 00000KT 2 1/2SM BR CLR 09/07 A3014 RMK AO2
SLP234 T00890067 10111 20089 51008





000
SAUS44 KSHV 251114
MTRBKB
SPECI KBKB 251113Z AUTO 00000KT 2 1/2SM BR CLR 09/07 A3013 RMK AO2
T00890067





000
SAUS44 KSHV 251114
MTRBKB
SPECI KBKB 251113Z AUTO 00000KT 2 1/2SM BR CLR 09/07 A3013 RMK AO2
T00890067





000
SAUS44 KSHV 251058
MTRBKB
METAR KBKB 251054Z AUTO 00000KT 3SM BR CLR 09/07 A3012 RMK AO2
SLP229 T00890067





000
SAUS44 KSHV 251058
MTRBKB
METAR KBKB 251054Z AUTO 00000KT 3SM BR CLR 09/07 A3012 RMK AO2
SLP229 T00890067





000
SAUS44 KSHV 251057
MTRAQV
METAR KAQV 251056Z AUTO 00000KT 9SM CLR 09/08 A3013 RMK AO2 SLP204
T00940083





000
SAUS44 KSHV 251057
MTRAQV
METAR KAQV 251056Z AUTO 00000KT 9SM CLR 09/08 A3013 RMK AO2 SLP204
T00940083





000
SAUS44 KSHV 250958
MTRAQV
METAR KAQV 250956Z AUTO 00000KT 7SM CLR 10/09 A3012 RMK AO2 SLP198
T01000089





000
SAUS44 KSHV 250955
MTRBKB
METAR KBKB 250954Z AUTO 00000KT 4SM BR CLR 09/07 A3011 RMK AO2
SLP224 T00940072





000
SAUS44 KSHV 250858
MTRAQV
METAR KAQV 250856Z AUTO 00000KT 7SM CLR 10/09 A3012 RMK AO2 SLP197
T01000089 58001





000
SAUS44 KSHV 250855
MTRBKB
METAR KBKB 250854Z AUTO 00000KT 4SM BR CLR 09/07 A3011 RMK AO2
SLP222 T00940072 55004





000
SAUS44 KSHV 250758
MTRAQV
METAR KAQV 250756Z AUTO 00000KT 10SM CLR 10/09 A3011 RMK AO2 SLP196
T01000089





000
SAUS44 KSHV 250755
MTRBKB
METAR KBKB 250754Z AUTO 00000KT 4SM BR CLR 10/08 A3010 RMK AO2
SLP221 T01000078





000
SAUS44 KSHV 250701 COR
MTRAQV
METAR KAQV 250656Z AUTO 00000KT 7SM CLR 10/09 A3013 RMK AO2 SLP200
T01000089





000
SAUS44 KSHV 250659 COR
MTRAQV
METAR KAQV 250656Z AUTO 00000KT 7SM CLR 10/09 A3013 RMK AO2 SLP200
T01000089





000
SAUS44 KSHV 250658
MTRAQV
METAR KAQV 250656Z AUTO 00000KT 7SM CLR 10/09 A3013 RMK AO2 SLP200
T01000089





000
SAUS44 KSHV 250656
MTRBKB
METAR KBKB 250654Z AUTO 00000KT 4SM BR CLR 11/08 A3011 RMK AO2
SLP225 T01060083





000
SAUS44 KSHV 250557
MTRAQV
METAR KAQV 250556Z AUTO 00000KT 9SM CLR 11/09 A3012 RMK AO2 SLP200
T01060094 10167 20106 402500083 58003





000
SAUS44 KSHV 250555
MTRBKB
METAR KBKB 250554Z AUTO 00000KT 4SM HZ CLR 11/08 A3012 RMK AO2
SLP226 T01110083 10178 20106 402610094 50001





000
SAUS44 KSHV 250458
MTRAQV
METAR KAQV 250456Z AUTO 00000KT 9SM CLR 11/10 A3013 RMK AO2 SLP201
T01110100





000
SAUS44 KSHV 250456
MTRBKB
METAR KBKB 250454Z AUTO 00000KT 6SM HZ CLR 12/09 A3012 RMK AO2
SLP227 T01170089





000
SAUS44 KSHV 250357
MTRAQV
METAR KAQV 250356Z AUTO 00000KT 7SM CLR 12/11 A3013 RMK AO2 SLP202
T01170106





000
SAUS44 KSHV 250357
MTRAQV
METAR KAQV 250356Z AUTO 00000KT 7SM CLR 12/11 A3013 RMK AO2 SLP202
T01170106





000
SAUS44 KSHV 250355
MTRBKB
METAR KBKB 250354Z AUTO 00000KT 10SM CLR 13/10 A3012 RMK AO2 SLP228
T01280100





000
SAUS44 KSHV 250355
MTRBKB
METAR KBKB 250354Z AUTO 00000KT 10SM CLR 13/10 A3012 RMK AO2 SLP228
T01280100





000
SAUS44 KSHV 250257
MTRAQV
METAR KAQV 250256Z AUTO 00000KT 6SM BR CLR 13/11 A3013 RMK AO2
SLP203 T01280111 53012





000
SAUS44 KSHV 250256
MTRBKB
METAR KBKB 250254Z AUTO 00000KT 10SM CLR 13/11 A3012 RMK AO2 SLP226
T01330106 52011





000
SAUS44 KSHV 250158
MTRAQV
METAR KAQV 250156Z AUTO 00000KT 3SM BR CLR 13/12 A3011 RMK AO2
SLP198 T01330122





000
SAUS44 KSHV 250155
MTRBKB
METAR KBKB 250154Z AUTO 00000KT 10SM CLR 14/11 A3011 RMK AO2 SLP223
T01440111





000
SAUS44 KSHV 250110 COR
MTRAQV
SPECI KAQV 250105Z AUTO 00000KT 3SM BR CLR 14/13 A3011 RMK AO2
T01440128





000
SAUS44 KSHV 250108 COR
MTRAQV
SPECI KAQV 250105Z AUTO 00000KT 3SM BR CLR 14/13 A3011 RMK AO2
T01440128





000
SAUS44 KSHV 250107 COR
MTRAQV
SPECI KAQV 250105Z AUTO 00000KT 3SM BR CLR 14/13 A3011 RMK AO2
T01440128





000
SAUS44 KSHV 250106
MTRAQV
SPECI KAQV 250105Z AUTO 00000KT 3SM BR CLR 14/13 A3011 RMK AO2
T01440128





000
SAUS44 KSHV 250057
MTRAQV
METAR KAQV 250056Z AUTO 00000KT 2 1/2SM BR CLR 15/13 A3011 RMK AO2
SLP196 T01500128





000
SAUS44 KSHV 250055
MTRBKB
METAR KBKB 250054Z AUTO 00000KT 10SM CLR 16/11 A3009 RMK AO2 SLP219
T01560106





000
SAUS44 KSHV 250040
MTRAQV
SPECI KAQV 250038Z AUTO 00000KT 2SM BR CLR 15/13 A3010 RMK AO2
T01500133





000
SAUS44 KSHV 242358
MTRAQV
METAR KAQV 242356Z AUTO 00000KT 10SM CLR 17/13 A3010 RMK AO2 SLP192
T01670128 10250 20167 51000





000
SAUS44 KSHV 242356
MTRBKB
METAR KBKB 242354Z AUTO 00000KT 10SM CLR 18/11 A3008 RMK AO2 SLP215
T01780106 10261 20178 53004





000
SAUS44 KSHV 242257
MTRAQV
METAR KAQV 242256Z AUTO 36003KT 10SM CLR 22/11 A3010 RMK AO2 SLP191
T02170111





000
SAUS44 KSHV 242255
MTRBKB
METAR KBKB 242254Z AUTO VRB03KT 10SM CLR 22/10 A3008 RMK AO2 SLP213
T02220100





000
SAUS44 KSHV 242158
MTRAQV
METAR KAQV 242156Z AUTO VRB04KT 10SM CLR 24/08 A3010 RMK AO2 SLP192
T02440083





000
SAUS44 KSHV 242156
MTRBKB
METAR KBKB 242154Z AUTO VRB03KT 10SM CLR 26/09 A3008 RMK AO2 SLP212
T02560089





000
SAUS44 KSHV 242058
MTRAQV
METAR KAQV 242056Z AUTO 03006KT 10SM CLR 24/08 A3009 RMK AO2 SLP190
T02440078 55010





000
SAUS44 KSHV 242055
MTRBKB
METAR KBKB 242054Z AUTO VRB03KT 10SM CLR 26/08 A3007 RMK AO2 SLP210
T02610078 56014





000
SAUS44 KSHV 241957
MTRAQV
METAR KAQV 241956Z AUTO VRB04KT 10SM CLR 25/08 A3009 RMK AO2 SLP189
T02500083





000
SAUS44 KSHV 241957
MTRAQV
METAR KAQV 241956Z AUTO VRB04KT 10SM CLR 25/08 A3009 RMK AO2 SLP189
T02500083





000
SAUS44 KSHV 241955
MTRBKB
METAR KBKB 241954Z AUTO VRB04KT 10SM CLR 26/07 A3007 RMK AO2 SLP210
T02560072





000
SAUS44 KSHV 241955
MTRBKB
METAR KBKB 241954Z AUTO VRB04KT 10SM CLR 26/07 A3007 RMK AO2 SLP210
T02560072





000
SAUS44 KSHV 241857
MTRAQV
METAR KAQV 241856Z AUTO VRB05KT 10SM CLR 24/07 A3011 RMK AO2 SLP194
T02390067





000
SAUS44 KSHV 241855
MTRBKB
METAR KBKB 241854Z AUTO VRB04KT 10SM CLR 24/09 A3008 RMK AO2 SLP214
T02440089





000
SAUS44 KSHV 241758
MTRAQV
METAR KAQV 241756Z AUTO 00000KT 10SM CLR 22/08 A3013 RMK AO2 SLP201
T02220083 10228 20083 58012





000
SAUS44 KSHV 241755
MTRBKB
METAR KBKB 241754Z AUTO VRB03KT 10SM CLR 23/09 A3011 RMK AO2 SLP224
T02330089 10233 20094 58011





000
SAUS44 KSHV 241657
MTRAQV
METAR KAQV 241656Z AUTO 04004KT 10SM CLR 21/09 A3016 RMK AO2 SLP212
T02060094





000
SAUS44 KSHV 241656
MTRBKB
METAR KBKB 241654Z AUTO VRB03KT 10SM CLR 22/09 A3014 RMK AO2 SLP234
T02220089





000
SAUS44 KSHV 241557
MTRAQV
METAR KAQV 241556Z AUTO 36005KT 10SM CLR 19/09 A3017 RMK AO2 SLP215
T01940094





000
SAUS44 KSHV 241555
MTRBKB
METAR KBKB 241554Z AUTO VRB03KT 10SM CLR 20/09 A3015 RMK AO2 SLP239
T02000094





000
SAUS44 KSHV 241457
MTRAQV
METAR KAQV 241456Z AUTO 02004KT 10SM CLR 16/11 A3016 RMK AO2 SLP213
T01610106 51009





000
SAUS44 KSHV 241456
MTRBKB
METAR KBKB 241454Z AUTO VRB03KT 10SM CLR 17/10 A3015 RMK AO2 SLP236
T01670100 51008





000
SAUS44 KSHV 241357
MTRAQV
METAR KAQV 241356Z AUTO 00000KT 10SM CLR 13/11 A3016 RMK AO2 SLP212
T01330106





000
SAUS44 KSHV 241355
MTRBKB
METAR KBKB 241354Z AUTO 36003KT 10SM CLR 14/10 A3014 RMK AO2 SLP236
T01390100





000
SAUS44 KSHV 241258
MTRAQV
METAR KAQV 241256Z AUTO 00000KT 6SM BR CLR 09/08 A3014 RMK AO2
SLP208 T00890078





000
SAUS44 KSHV 241255
MTRBKB
METAR KBKB 241254Z AUTO 00000KT 5SM BR CLR 10/08 A3013 RMK AO2
SLP233 T01000078





000
SAUS44 KSHV 241157
MTRAQV
METAR KAQV 241156Z AUTO 00000KT 6SM BR CLR 08/07 A3013 RMK AO2
SLP205 T00830072 10100 20083 52007





000
SAUS44 KSHV 241156
MTRBKB
METAR KBKB 241154Z AUTO 00000KT 5SM BR CLR 09/07 A3012 RMK AO2
SLP229 T00940072 10111 20094 53006





000
SAUS44 KSHV 241057
MTRAQV
METAR KAQV 241056Z AUTO 00000KT 8SM CLR 08/07 A3013 RMK AO2 SLP202
T00830072





000
SAUS44 KSHV 241057
MTRAQV
METAR KAQV 241056Z AUTO 00000KT 8SM CLR 08/07 A3013 RMK AO2 SLP202
T00830072





000
SAUS44 KSHV 241056
MTRBKB
METAR KBKB 241054Z AUTO 00000KT 4SM BR CLR 10/08 A3011 RMK AO2
SLP226 T01000078





000
SAUS44 KSHV 241056
MTRBKB
METAR KBKB 241054Z AUTO 00000KT 4SM BR CLR 10/08 A3011 RMK AO2
SLP226 T01000078





000
SAUS44 KSHV 240958
MTRAQV
METAR KAQV 240956Z AUTO 00000KT 8SM CLR 08/07 A3012 RMK AO2 SLP199
T00830072





000
SAUS44 KSHV 240958
MTRAQV
METAR KAQV 240956Z AUTO 00000KT 8SM CLR 08/07 A3012 RMK AO2 SLP199
T00830072





000
SAUS44 KSHV 240955
MTRBKB
METAR KBKB 240954Z AUTO 00000KT 6SM BR CLR 10/08 A3011 RMK AO2
SLP223 T01000078





000
SAUS44 KSHV 240857
MTRAQV
METAR KAQV 240856Z AUTO 00000KT 5SM BR CLR 09/08 A3011 RMK AO2
SLP196 T00890078 50000





000
SAUS44 KSHV 240855
MTRBKB
METAR KBKB 240854Z AUTO 00000KT 10SM CLR 11/08 A3010 RMK AO2 SLP222
T01060083 50002





000
SAUS44 KSHV 240758
MTRAQV
METAR KAQV 240756Z AUTO 00000KT 8SM CLR 09/08 A3012 RMK AO2 SLP200
T00890078





000
SAUS44 KSHV 240756
MTRBKB
METAR KBKB 240754Z AUTO 00000KT 8SM CLR 11/08 A3010 RMK AO2 SLP221
T01060083





000
SAUS44 KSHV 240657
MTRAQV
METAR KAQV 240656Z AUTO 00000KT 7SM CLR 09/08 A3011 RMK AO2 SLP196
T00940083





000
SAUS44 KSHV 240655
MTRBKB
METAR KBKB 240654Z AUTO 00000KT 8SM CLR 11/09 A3011 RMK AO2 SLP223
T01110089





000
SAUS44 KSHV 240557
MTRAQV
METAR KAQV 240556Z AUTO 00000KT 9SM CLR 10/08 A3011 RMK AO2 SLP196
T01000083 10139 20100 402220100 53001





000
SAUS44 KSHV 240555
MTRBKB
METAR KBKB 240554Z AUTO 00000KT 9SM CLR 11/08 A3010 RMK AO2 SLP220
T01060083 10167 20106 402330106 55002





000
SAUS44 KSHV 240457
MTRAQV
METAR KAQV 240456Z AUTO 00000KT 8SM CLR 11/09 A3010 RMK AO2 SLP193
T01060089





000
SAUS44 KSHV 240457
MTRAQV
METAR KAQV 240456Z AUTO 00000KT 8SM CLR 11/09 A3010 RMK AO2 SLP193
T01060089





000
SAUS44 KSHV 240455
MTRBKB
METAR KBKB 240454Z AUTO 00000KT 7SM CLR 11/09 A3009 RMK AO2 SLP217
T01110089





000
SAUS44 KSHV 240455
MTRBKB
METAR KBKB 240454Z AUTO 00000KT 7SM CLR 11/09 A3009 RMK AO2 SLP217
T01110089





000
SAUS44 KSHV 240357
MTRAQV
METAR KAQV 240356Z AUTO 00000KT 6SM BR CLR 11/09 A3011 RMK AO2
SLP196 T01110094





000
SAUS44 KSHV 240357
MTRAQV
METAR KAQV 240356Z AUTO 00000KT 6SM BR CLR 11/09 A3011 RMK AO2
SLP196 T01110094





000
SAUS44 KSHV 240355
MTRBKB
METAR KBKB 240354Z AUTO 00000KT 10SM CLR 12/09 A3009 RMK AO2 SLP219
T01220094





000
SAUS44 KSHV 240355
MTRBKB
METAR KBKB 240354Z AUTO 00000KT 10SM CLR 12/09 A3009 RMK AO2 SLP219
T01220094





000
SAUS44 KSHV 240257
MTRAQV
METAR KAQV 240256Z AUTO 00000KT 10SM CLR 12/11 A3011 RMK AO2 SLP196
T01170106 50007





000
SAUS44 KSHV 240257
MTRAQV
METAR KAQV 240256Z AUTO 00000KT 10SM CLR 12/11 A3011 RMK AO2 SLP196
T01170106 50007





000
SAUS44 KSHV 240255
MTRBKB
METAR KBKB 240254Z AUTO 00000KT 10SM CLR 12/09 A3010 RMK AO2 SLP222
T01220094 51010





000
SAUS44 KSHV 240255
MTRBKB
METAR KBKB 240254Z AUTO 00000KT 10SM CLR 12/09 A3010 RMK AO2 SLP222
T01220094 51010





000
SAUS44 KSHV 240158
MTRAQV
METAR KAQV 240156Z AUTO 00000KT 7SM CLR 12/11 A3011 RMK AO2 SLP198
T01170106





000
SAUS44 KSHV 240158
MTRAQV
METAR KAQV 240156Z AUTO 00000KT 7SM CLR 12/11 A3011 RMK AO2 SLP198
T01170106





000
SAUS44 KSHV 240155
MTRBKB
METAR KBKB 240154Z AUTO 00000KT 10SM CLR 14/11 A3010 RMK AO2 SLP222
T01390106





000
SAUS44 KSHV 240155
MTRBKB
METAR KBKB 240154Z AUTO 00000KT 10SM CLR 14/11 A3010 RMK AO2 SLP222
T01390106





000
SAUS44 KSHV 240057
MTRAQV
METAR KAQV 240056Z AUTO 00000KT 8SM CLR 13/11 A3011 RMK AO2 SLP196
T01280111





000
SAUS44 KSHV 240055
MTRBKB
METAR KBKB 240054Z AUTO 00000KT 10SM CLR 15/11 A3009 RMK AO2 SLP218
T01500111





000
SAUS44 KSHV 240001 COR
MTRAQV
METAR KAQV 232356Z AUTO 00000KT 10SM CLR 14/12 A3009 RMK AO2 SLP189
T01390117 10222 20139 55000





000
SAUS44 KSHV 232359 COR
MTRAQV
METAR KAQV 232356Z AUTO 00000KT 10SM CLR 14/12 A3009 RMK AO2 SLP189
T01390117 10222 20139 55000





000
SAUS44 KSHV 232358 COR
MTRAQV
METAR KAQV 232356Z AUTO 00000KT 10SM CLR 14/12 A3009 RMK AO2 SLP189
T01390117 10222 20139 55000





000
SAUS44 KSHV 232358
MTRAQV
METAR KAQV 232356Z AUTO 00000KT 10SM CLR 14/12 A3009 RMK AO2 SLP189
T01390117 10222 20139 55000





000
SAUS44 KSHV 232355
MTRBKB
METAR KBKB 232354Z AUTO 00000KT 10SM CLR 17/12 A3007 RMK AO2 SLP212
T01670117 10233 20167 50005





000
SAUS44 KSHV 232258
MTRAQV
METAR KAQV 232256Z AUTO 01004KT 10SM CLR 18/11 A3009 RMK AO2 SLP188
T01780111





000
SAUS44 KSHV 232255
MTRBKB
METAR KBKB 232254Z AUTO 00000KT 10SM CLR 19/11 A3007 RMK AO2 SLP212
T01940111





000
SAUS44 KSHV 232157
MTRAQV
METAR KAQV 232156Z AUTO 03005KT 10SM CLR 20/10 A3008 RMK AO2 SLP187
T02000100





000
SAUS44 KSHV 232155
MTRBKB
METAR KBKB 232154Z AUTO VRB04KT 10SM CLR 21/11 A3007 RMK AO2 SLP210
T02110111





000
SAUS44 KSHV 232058 COR
MTRBKB
METAR KBKB 232054Z AUTO VRB04KT 10SM CLR 22/10 A3006 RMK AO2 SLP206
T02170100 56018





000
SAUS44 KSHV 232057
MTRAQV
METAR KAQV 232056Z AUTO 01008KT 10SM CLR 21/11 A3009 RMK AO2 SLP188
T02060106 55012





000
SAUS44 KSHV 232055
MTRBKB
METAR KBKB 232054Z AUTO VRB04KT 10SM CLR 22/10 A3006 RMK AO2 SLP206
T02170100 56018





000
SAUS44 KSHV 231959
MTRAQV
METAR KAQV 231956Z AUTO VRB05KT 10SM CLR 22/11 A3007 RMK AO2 SLP182
T02170106





000
SAUS44 KSHV 231955
MTRBKB
METAR KBKB 231954Z AUTO VRB04KT 10SM CLR 23/10 A3006 RMK AO2 SLP206
T02330100





000
SAUS44 KSHV 231955
MTRBKB
METAR KBKB 231954Z AUTO VRB04KT 10SM CLR 23/10 A3006 RMK AO2 SLP206
T02330100





000
SAUS44 KSHV 231857
MTRAQV
METAR KAQV 231856Z AUTO VRB04KT 10SM CLR 21/10 A3010 RMK AO2 SLP191
T02060100





000
SAUS44 KSHV 231857
MTRAQV
METAR KAQV 231856Z AUTO VRB04KT 10SM CLR 21/10 A3010 RMK AO2 SLP191
T02060100





000
SAUS44 KSHV 231855
MTRBKB
METAR KBKB 231854Z AUTO VRB03KT 10SM CLR 22/11 A3008 RMK AO2 SLP212
T02220106





000
SAUS44 KSHV 231855
MTRBKB
METAR KBKB 231854Z AUTO VRB03KT 10SM CLR 22/11 A3008 RMK AO2 SLP212
T02220106





000
SAUS44 KSHV 231757
MTRAQV
METAR KAQV 231756Z AUTO 08004KT 10SM CLR 19/11 A3012 RMK AO2 SLP199
T01890106 10194 20122 58008





000
SAUS44 KSHV 231757
MTRAQV
METAR KAQV 231756Z AUTO 08004KT 10SM CLR 19/11 A3012 RMK AO2 SLP199
T01890106 10194 20122 58008





000
SAUS44 KSHV 231755
MTRBKB
METAR KBKB 231754Z AUTO VRB03KT 10SM CLR 21/11 A3011 RMK AO2 SLP224
T02060106 10211 20122 58004





000
SAUS44 KSHV 231755
MTRBKB
METAR KBKB 231754Z AUTO VRB03KT 10SM CLR 21/11 A3011 RMK AO2 SLP224
T02060106 10211 20122 58004





000
SAUS44 KSHV 231658
MTRAQV
METAR KAQV 231656Z AUTO 00000KT 10SM CLR 19/10 A3016 RMK AO2 SLP210
T01890100





000
SAUS44 KSHV 231658
MTRAQV
METAR KAQV 231656Z AUTO 00000KT 10SM CLR 19/10 A3016 RMK AO2 SLP210
T01890100





000
SAUS44 KSHV 231655
MTRBKB
METAR KBKB 231654Z AUTO 00000KT 10SM CLR 21/10 A3014 RMK AO2 SLP233
T02060100





000
SAUS44 KSHV 231655
MTRBKB
METAR KBKB 231654Z AUTO 00000KT 10SM CLR 21/10 A3014 RMK AO2 SLP233
T02060100





000
SAUS44 KSHV 231557
MTRAQV
METAR KAQV 231556Z AUTO 05003KT 10SM CLR 18/09 A3015 RMK AO2 SLP209
T01780094





000
SAUS44 KSHV 231555
MTRBKB
METAR KBKB 231554Z AUTO VRB03KT 10SM CLR 19/10 A3013 RMK AO2 SLP231
T01890100





000
SAUS44 KSHV 231457
MTRAQV
METAR KAQV 231456Z AUTO 02003KT 10SM CLR 14/10 A3015 RMK AO2 SLP208
T01440100 53015





000
SAUS44 KSHV 231457
MTRAQV
METAR KAQV 231456Z AUTO 02003KT 10SM CLR 14/10 A3015 RMK AO2 SLP208
T01440100 53015





000
SAUS44 KSHV 231455
MTRBKB
METAR KBKB 231454Z AUTO 00000KT 10SM CLR 17/10 A3012 RMK AO2 SLP228
T01670100 53010





000
SAUS44 KSHV 231357
MTRAQV
METAR KAQV 231356Z AUTO 00000KT 10SM CLR 13/09 A3013 RMK AO2 SLP202
T01330094





000
SAUS44 KSHV 231355
MTRBKB
METAR KBKB 231354Z AUTO VRB03KT 10SM CLR 14/09 A3011 RMK AO2 SLP225
T01440094





000
SAUS44 KSHV 231257
MTRAQV
METAR KAQV 231256Z AUTO VRB03KT 10SM CLR 12/09 A3011 RMK AO2 SLP194
T01220094





000
SAUS44 KSHV 231256
MTRBKB
METAR KBKB 231254Z AUTO VRB03KT 10SM CLR 13/09 A3010 RMK AO2 SLP220
T01330094





000
SAUS44 KSHV 231157
MTRAQV
METAR KAQV 231156Z AUTO 00000KT 10SM CLR 13/09 A3010 RMK AO2 SLP193
T01280089 10156 20117 53000





000
SAUS44 KSHV 231155
MTRBKB
METAR KBKB 231154Z AUTO 00000KT 10SM CLR 12/09 A3009 RMK AO2 SLP218
T01220089 10156 20117 53003





000
SAUS44 KSHV 231059
MTRAQV
METAR KAQV 231056Z AUTO 07004KT 10SM CLR 12/09 A3009 RMK AO2 SLP187
T01220089





000
SAUS44 KSHV 231056
MTRBKB
METAR KBKB 231054Z AUTO 00000KT 10SM CLR 12/09 A3009 RMK AO2 SLP215
T01170089





000
SAUS44 KSHV 230957
MTRAQV
METAR KAQV 230956Z AUTO 00000KT 10SM CLR 12/09 A3010 RMK AO2 SLP192
T01170094





000
SAUS44 KSHV 230957
MTRAQV
METAR KAQV 230956Z AUTO 00000KT 10SM CLR 12/09 A3010 RMK AO2 SLP192
T01170094





000
SAUS44 KSHV 230955
MTRBKB
METAR KBKB 230954Z AUTO 00000KT 10SM CLR 13/09 A3009 RMK AO2 SLP215
T01280089





000
SAUS44 KSHV 230955
MTRBKB
METAR KBKB 230954Z AUTO 00000KT 10SM CLR 13/09 A3009 RMK AO2 SLP215
T01280089





000
SAUS44 KSHV 230858
MTRAQV
METAR KAQV 230856Z AUTO 00000KT 10SM CLR 12/10 A3010 RMK AO2 SLP191
T01170100 57000





000
SAUS44 KSHV 230855
MTRBKB
METAR KBKB 230854Z AUTO 00000KT 10SM CLR 13/09 A3008 RMK AO2 SLP214
T01280094 56004





000
SAUS44 KSHV 230757
MTRAQV
METAR KAQV 230756Z AUTO 02003KT 10SM CLR 14/09 A3010 RMK AO2 SLP191
T01390094





000
SAUS44 KSHV 230756
MTRBKB
METAR KBKB 230754Z AUTO 00000KT 10SM CLR 13/10 A3009 RMK AO2 SLP216
T01330100





000
SAUS44 KSHV 230658
MTRAQV
METAR KAQV 230656Z AUTO VRB03KT 10SM CLR 14/10 A3010 RMK AO2 SLP192
T01440100





000
SAUS44 KSHV 230655
MTRBKB
METAR KBKB 230654Z AUTO 04003KT 10SM CLR 15/10 A3009 RMK AO2 SLP214
T01500100





000
SAUS44 KSHV 230557
MTRAQV
METAR KAQV 230556Z AUTO 04004KT 10SM CLR 15/10 A3010 RMK AO2 SLP192
T01500100 10178 20150 402670139 58005





000
SAUS44 KSHV 230555
MTRBKB
METAR KBKB 230554Z AUTO VRB03KT 10SM CLR 15/11 A3009 RMK AO2 SLP217
T01500106 10189 20150 402780150 58002





000
SAUS44 KSHV 230457
MTRAQV
METAR KAQV 230456Z AUTO 03004KT 10SM CLR 16/11 A3012 RMK AO2 SLP198
T01560111





000
SAUS44 KSHV 230457
MTRAQV
METAR KAQV 230456Z AUTO 03004KT 10SM CLR 16/11 A3012 RMK AO2 SLP198
T01560111





000
SAUS44 KSHV 230455
MTRBKB
METAR KBKB 230454Z AUTO 02003KT 10SM CLR 16/11 A3011 RMK AO2 SLP222
T01560111





000
SAUS44 KSHV 230455
MTRBKB
METAR KBKB 230454Z AUTO 02003KT 10SM CLR 16/11 A3011 RMK AO2 SLP222
T01560111





000
SAUS44 KSHV 230357
MTRAQV
METAR KAQV 230356Z AUTO 03004KT 10SM CLR 17/11 A3013 RMK AO2 SLP202
T01670111





000
SAUS44 KSHV 230357
MTRAQV
METAR KAQV 230356Z AUTO 03004KT 10SM CLR 17/11 A3013 RMK AO2 SLP202
T01670111





000
SAUS44 KSHV 230355
MTRBKB
METAR KBKB 230354Z AUTO VRB03KT 10SM CLR 16/12 A3011 RMK AO2 SLP225
T01560122





000
SAUS44 KSHV 230355
MTRBKB
METAR KBKB 230354Z AUTO VRB03KT 10SM CLR 16/12 A3011 RMK AO2 SLP225
T01560122





000
SAUS44 KSHV 230259
MTRAQV
METAR KAQV 230256Z AUTO 03004KT 10SM CLR 17/12 A3012 RMK AO2 SLP197
T01670117 53015





000
SAUS44 KSHV 230255
MTRBKB
METAR KBKB 230254Z AUTO 00000KT 10SM CLR 16/13 A3010 RMK AO2 SLP220
T01560128 53016





000
SAUS44 KSHV 230157
MTRAQV
METAR KAQV 230156Z AUTO 03004KT 7SM CLR 16/13 A3009 RMK AO2 SLP189
T01560128





000
SAUS44 KSHV 230157
MTRAQV
METAR KAQV 230156Z AUTO 03004KT 7SM CLR 16/13 A3009 RMK AO2 SLP189
T01560128





000
SAUS44 KSHV 230156
MTRBKB
METAR KBKB 230154Z AUTO 00000KT 10SM CLR 17/13 A3008 RMK AO2 SLP212
T01670128





000
SAUS44 KSHV 230156
MTRBKB
METAR KBKB 230154Z AUTO 00000KT 10SM CLR 17/13 A3008 RMK AO2 SLP212
T01670128





000
SAUS44 KSHV 230058
MTRAQV
METAR KAQV 230056Z AUTO 00000KT 3SM HZ CLR 17/14 A3008 RMK AO2
SLP187 T01670139





000
SAUS44 KSHV 230058
MTRAQV
METAR KAQV 230056Z AUTO 00000KT 3SM HZ CLR 17/14 A3008 RMK AO2
SLP187 T01670139





000
SAUS44 KSHV 230055
MTRBKB
METAR KBKB 230054Z AUTO 00000KT 10SM CLR 17/13 A3006 RMK AO2 SLP209
T01720128





000
SAUS44 KSHV 230055
MTRBKB
METAR KBKB 230054Z AUTO 00000KT 10SM CLR 17/13 A3006 RMK AO2 SLP209
T01720128





000
SAUS44 KSHV 230050
MTRAQV
SPECI KAQV 230049Z AUTO 00000KT 2SM HZ CLR 17/14 A3008 RMK AO2
T01670139





000
SAUS44 KSHV 230050
MTRAQV
SPECI KAQV 230049Z AUTO 00000KT 2SM HZ CLR 17/14 A3008 RMK AO2
T01670139





000
SAUS44 KSHV 222359
MTRAQV
METAR KAQV 222356Z AUTO 00000KT 6SM HZ CLR 18/14 A3007 RMK AO2
SLP183 T01780139 10267 20178 53004





000
SAUS44 KSHV 222359
MTRAQV
METAR KAQV 222356Z AUTO 00000KT 6SM HZ CLR 18/14 A3007 RMK AO2
SLP183 T01780139 10267 20178 53004





000
SAUS44 KSHV 222356
MTRBKB
METAR KBKB 222354Z AUTO 00000KT 10SM CLR 19/13 A3005 RMK AO2 SLP204
T01890128 10278 20189 53003





000
SAUS44 KSHV 222356
MTRBKB
METAR KBKB 222354Z AUTO 00000KT 10SM CLR 19/13 A3005 RMK AO2 SLP204
T01890128 10278 20189 53003





000
SAUS44 KSHV 222351
MTRAQV
SPECI KAQV 222349Z AUTO 00000KT 2SM HZ CLR 18/14 A3007 RMK AO2
T01830144





000
SAUS44 KSHV 222351
MTRAQV
SPECI KAQV 222349Z AUTO 00000KT 2SM HZ CLR 18/14 A3007 RMK AO2
T01830144





000
SAUS44 KSHV 222343
MTRAQV
SPECI KAQV 222342Z AUTO 00000KT 3/4SM HZ CLR 19/14 A3007 RMK AO2
T01890139





000
SAUS44 KSHV 222317
MTRAQV
SPECI KAQV 222316Z AUTO 00000KT 1 3/4SM HZ CLR 21/14 A3007 RMK AO2
T02060139





000
SAUS44 KSHV 222317
MTRAQV
SPECI KAQV 222316Z AUTO 00000KT 1 3/4SM HZ CLR 21/14 A3007 RMK AO2
T02060139





000
SAUS44 KSHV 222258
MTRAQV
METAR KAQV 222256Z AUTO VRB04KT 10SM CLR 24/12 A3006 RMK AO2 SLP177
T02390117





000
SAUS44 KSHV 222258
MTRAQV
METAR KAQV 222256Z AUTO VRB04KT 10SM CLR 24/12 A3006 RMK AO2 SLP177
T02390117





000
SAUS44 KSHV 222255
MTRBKB
METAR KBKB 222254Z AUTO 00000KT 10SM CLR 24/12 A3004 RMK AO2 SLP199
T02390117





000
SAUS44 KSHV 222255
MTRBKB
METAR KBKB 222254Z AUTO 00000KT 10SM CLR 24/12 A3004 RMK AO2 SLP199
T02390117





000
SAUS44 KSHV 222157
MTRAQV
METAR KAQV 222156Z AUTO 10SM CLR 26/11 A3005 RMK AO2 SLP175
T02560106





000
SAUS44 KSHV 222155
MTRBKB
METAR KBKB 222154Z AUTO 00000KT 10SM CLR 27/11 A3003 RMK AO2 SLP196
T02670111





000
SAUS44 KSHV 222059
MTRAQV
METAR KAQV 222056Z AUTO 07007KT 10SM CLR 26/10 A3006 RMK AO2 SLP177
T02610100 56019





000
SAUS44 KSHV 222055
MTRBKB
METAR KBKB 222054Z AUTO VRB04KT 10SM CLR 27/10 A3004 RMK AO2 SLP200
T02720100 56017





000
SAUS44 KSHV 221957
MTRAQV
METAR KAQV 221956Z AUTO VRB04KT 10SM CLR 26/10 A3007 RMK AO2 SLP182
T02560100





000
SAUS44 KSHV 221955
MTRBKB
METAR KBKB 221954Z AUTO VRB04KT 10SM CLR 27/11 A3005 RMK AO2 SLP203
T02720111





000
SAUS44 KSHV 221857
MTRAQV
METAR KAQV 221856Z AUTO 05007KT 020V090 10SM CLR 26/11 A3008 RMK AO2
SLP186 T02610106





000
SAUS44 KSHV 221855
MTRBKB
METAR KBKB 221854Z AUTO 01005KT 10SM CLR 27/13 A3006 RMK AO2 SLP205
T02720128





000
SAUS44 KSHV 221757
MTRAQV
METAR KAQV 221756Z AUTO 01007KT 340V060 10SM CLR 26/13 A3012 RMK AO2
SLP196 T02560128 10256 20139 58004





000
SAUS44 KSHV 221757
MTRAQV
METAR KAQV 221756Z AUTO 01007KT 340V060 10SM CLR 26/13 A3012 RMK AO2
SLP196 T02560128 10256 20139 58004





000
SAUS44 KSHV 221755
MTRBKB
METAR KBKB 221754Z AUTO 02005KT 10SM CLR 27/13 A3009 RMK AO2 SLP217
T02670133 10272 20156 58006





000
SAUS44 KSHV 221755
MTRBKB
METAR KBKB 221754Z AUTO 02005KT 10SM CLR 27/13 A3009 RMK AO2 SLP217
T02670133 10272 20156 58006





000
SAUS44 KSHV 221658
MTRAQV
METAR KAQV 221656Z AUTO VRB06KT 10SM CLR 25/13 A3013 RMK AO2 SLP203
T02500128





000
SAUS44 KSHV 221658
MTRAQV
METAR KAQV 221656Z AUTO VRB06KT 10SM CLR 25/13 A3013 RMK AO2 SLP203
T02500128





000
SAUS44 KSHV 221656
MTRBKB
METAR KBKB 221654Z AUTO VRB05KT 10SM CLR 26/13 A3011 RMK AO2 SLP223
T02610133





000
SAUS44 KSHV 221656
MTRBKB
METAR KBKB 221654Z AUTO VRB05KT 10SM CLR 26/13 A3011 RMK AO2 SLP223
T02610133





000
SAUS44 KSHV 221557
MTRAQV
METAR KAQV 221556Z AUTO VRB04KT 10SM CLR 24/13 A3014 RMK AO2 SLP204
T02390133





000
SAUS44 KSHV 221557
MTRAQV
METAR KAQV 221556Z AUTO VRB04KT 10SM CLR 24/13 A3014 RMK AO2 SLP204
T02390133





000
SAUS44 KSHV 221555
MTRBKB
METAR KBKB 221554Z AUTO VRB05KT 10SM CLR 25/14 A3012 RMK AO2 SLP225
T02500139





000
SAUS44 KSHV 221555
MTRBKB
METAR KBKB 221554Z AUTO VRB05KT 10SM CLR 25/14 A3012 RMK AO2 SLP225
T02500139





    US Dept of Commerce
    National Oceanic and Atmospheric Administration
    National Weather Service
    1325 East West Highway
    Silver Spring, MD 20910
    Page Author: NWS Internet Services Team
Disclaimer
Information Quality
Credits
Glossary
Privacy Policy
Freedom of Information Act (FOIA)
About Us
Career Opportunities